Аэропорт: Актобе. Актобе

ICAO: UATT

METAR:
2018/07/16 20:00
UATT 162000Z 09005MPS CAVOK 26/12 Q1009 R13/CLRD70 NOSIG RMK QFE737/0983
METAR:
2018/07/16 18:18
TAF UATT 161700Z 1618/1718 09006MPS 9999 SCT040CB TX34/1712Z TN19/1700Z 
      TEMPO 1618/1706 09011MPS 5000 -SHRA BKN020CB 
     FM170600 12011MPS 9999 BKN050CB